sensor_id;sensor_type;location;lat;lon;timestamp;P1;durP1;ratioP1;P2;durP2;ratioP2
40116;SDS011;25829;50.228;18.936;2023-06-22T00:00:11;7.20;;;5.95;;
40116;SDS011;25829;50.228;18.936;2023-06-22T00:03:12;6.70;;;5.97;;
40116;SDS011;25829;50.228;18.936;2023-06-22T00:06:13;10.02;;;6.80;;
40116;SDS011;25829;50.228;18.936;2023-06-22T00:09:14;8.95;;;6.63;;
40116;SDS011;25829;50.228;18.936;2023-06-22T00:12:14;8.30;;;6.70;;
40116;SDS011;25829;50.228;18.936;2023-06-22T00:15:15;10.50;;;6.45;;
40116;SDS011;25829;50.228;18.936;2023-06-22T00:18:16;9.07;;;6.90;;
40116;SDS011;25829;50.228;18.936;2023-06-22T00:21:17;12.75;;;7.05;;
40116;SDS011;25829;50.228;18.936;2023-06-22T00:24:20;8.48;;;5.75;;
40116;SDS011;25829;50.228;18.936;2023-06-22T00:27:22;9.27;;;6.50;;
40116;SDS011;25829;50.228;18.936;2023-06-22T00:30:23;11.68;;;6.80;;
40116;SDS011;25829;50.228;18.936;2023-06-22T00:33:23;9.40;;;6.45;;
40116;SDS011;25829;50.228;18.936;2023-06-22T00:36:24;8.48;;;6.07;;
40116;SDS011;25829;50.228;18.936;2023-06-22T00:39:25;11.85;;;7.32;;
40116;SDS011;25829;50.228;18.936;2023-06-22T00:42:25;9.63;;;6.90;;
40116;SDS011;25829;50.228;18.936;2023-06-22T00:45:27;11.20;;;7.28;;
40116;SDS011;25829;50.228;18.936;2023-06-22T00:48:28;12.10;;;6.82;;
40116;SDS011;25829;50.228;18.936;2023-06-22T00:51:28;9.85;;;6.82;;
40116;SDS011;25829;50.228;18.936;2023-06-22T00:54:29;12.02;;;6.70;;
40116;SDS011;25829;50.228;18.936;2023-06-22T00:57:30;11.65;;;6.85;;
40116;SDS011;25829;50.228;18.936;2023-06-22T01:00:31;9.55;;;6.05;;
40116;SDS011;25829;50.228;18.936;2023-06-22T01:03:34;6.78;;;6.03;;
40116;SDS011;25829;50.228;18.936;2023-06-22T01:06:40;11.48;;;6.85;;
40116;SDS011;25829;50.228;18.936;2023-06-22T01:13:39;11.13;;;6.78;;
40116;SDS011;25829;50.228;18.936;2023-06-22T01:16:46;8.20;;;6.22;;
40116;SDS011;25829;50.228;18.936;2023-06-22T01:20:31;9.50;;;5.95;;
40116;SDS011;25829;50.228;18.936;2023-06-22T01:30:28;11.25;;;7.35;;
40116;SDS011;25829;50.228;18.936;2023-06-22T01:33:34;8.35;;;6.18;;
40116;SDS011;25829;50.228;18.936;2023-06-22T01:36:49;10.48;;;6.18;;
40116;SDS011;25829;50.228;18.936;2023-06-22T01:39:51;11.52;;;6.55;;
40116;SDS011;25829;50.228;18.936;2023-06-22T01:43:00;9.68;;;6.85;;
40116;SDS011;25829;50.228;18.936;2023-06-22T01:46:04;7.95;;;6.53;;
40116;SDS011;25829;50.228;18.936;2023-06-22T01:49:08;7.88;;;6.38;;
40116;SDS011;25829;50.228;18.936;2023-06-22T01:52:10;9.05;;;6.47;;
40116;SDS011;25829;50.228;18.936;2023-06-22T01:55:11;9.23;;;6.72;;
40116;SDS011;25829;50.228;18.936;2023-06-22T01:58:14;7.80;;;6.38;;
40116;SDS011;25829;50.228;18.936;2023-06-22T02:01:15;9.32;;;6.63;;
40116;SDS011;25829;50.228;18.936;2023-06-22T02:04:46;10.50;;;7.07;;
40116;SDS011;25829;50.228;18.936;2023-06-22T02:08:00;8.32;;;5.85;;
40116;SDS011;25829;50.228;18.936;2023-06-22T02:11:08;9.05;;;6.30;;
40116;SDS011;25829;50.228;18.936;2023-06-22T02:14:11;8.50;;;6.63;;
40116;SDS011;25829;50.228;18.936;2023-06-22T02:17:13;7.20;;;6.43;;
40116;SDS011;25829;50.228;18.936;2023-06-22T02:20:17;13.10;;;6.60;;
40116;SDS011;25829;50.228;18.936;2023-06-22T02:23:18;9.55;;;6.93;;
40116;SDS011;25829;50.228;18.936;2023-06-22T02:26:19;8.85;;;6.65;;
40116;SDS011;25829;50.228;18.936;2023-06-22T02:29:20;12.07;;;7.63;;
40116;SDS011;25829;50.228;18.936;2023-06-22T02:32:20;10.35;;;6.95;;
40116;SDS011;25829;50.228;18.936;2023-06-22T02:35:21;11.27;;;6.90;;
40116;SDS011;25829;50.228;18.936;2023-06-22T02:38:22;9.98;;;6.53;;
40116;SDS011;25829;50.228;18.936;2023-06-22T02:41:25;10.63;;;6.80;;
40116;SDS011;25829;50.228;18.936;2023-06-22T02:44:26;7.75;;;6.50;;
40116;SDS011;25829;50.228;18.936;2023-06-22T02:47:28;8.52;;;6.68;;
40116;SDS011;25829;50.228;18.936;2023-06-22T02:50:29;9.65;;;7.38;;
40116;SDS011;25829;50.228;18.936;2023-06-22T02:53:31;10.70;;;6.88;;
40116;SDS011;25829;50.228;18.936;2023-06-22T02:56:35;8.80;;;6.10;;
40116;SDS011;25829;50.228;18.936;2023-06-22T02:59:37;8.70;;;6.20;;
40116;SDS011;25829;50.228;18.936;2023-06-22T03:02:46;8.80;;;6.82;;
40116;SDS011;25829;50.228;18.936;2023-06-22T03:05:48;8.52;;;6.30;;
40116;SDS011;25829;50.228;18.936;2023-06-22T03:08:49;9.57;;;6.15;;
40116;SDS011;25829;50.228;18.936;2023-06-22T03:11:51;11.88;;;6.90;;
40116;SDS011;25829;50.228;18.936;2023-06-22T03:14:53;10.25;;;6.38;;
40116;SDS011;25829;50.228;18.936;2023-06-22T03:17:54;10.40;;;6.60;;
40116;SDS011;25829;50.228;18.936;2023-06-22T03:20:57;10.10;;;7.07;;
40116;SDS011;25829;50.228;18.936;2023-06-22T03:23:58;10.65;;;7.53;;
40116;SDS011;25829;50.228;18.936;2023-06-22T03:26:59;11.57;;;8.38;;
40116;SDS011;25829;50.228;18.936;2023-06-22T03:30:00;11.93;;;7.32;;
40116;SDS011;25829;50.228;18.936;2023-06-22T03:33:01;12.77;;;6.82;;
40116;SDS011;25829;50.228;18.936;2023-06-22T03:36:02;7.95;;;7.15;;
40116;SDS011;25829;50.228;18.936;2023-06-22T03:39:03;12.32;;;6.93;;
40116;SDS011;25829;50.228;18.936;2023-06-22T03:42:04;12.80;;;6.80;;
40116;SDS011;25829;50.228;18.936;2023-06-22T03:45:08;8.65;;;6.70;;
40116;SDS011;25829;50.228;18.936;2023-06-22T03:48:10;9.60;;;6.80;;
40116;SDS011;25829;50.228;18.936;2023-06-22T03:51:11;12.65;;;6.32;;
40116;SDS011;25829;50.228;18.936;2023-06-22T03:54:11;9.93;;;7.10;;
40116;SDS011;25829;50.228;18.936;2023-06-22T03:57:12;9.85;;;6.95;;
40116;SDS011;25829;50.228;18.936;2023-06-22T04:31:43;14.18;;;6.47;;
40116;SDS011;25829;50.228;18.936;2023-06-22T04:35:11;8.02;;;6.32;;
40116;SDS011;25829;50.228;18.936;2023-06-22T04:38:12;7.82;;;5.88;;
40116;SDS011;25829;50.228;18.936;2023-06-22T04:41:13;9.93;;;6.70;;
40116;SDS011;25829;50.228;18.936;2023-06-22T04:47:32;9.55;;;6.25;;
40116;SDS011;25829;50.228;18.936;2023-06-22T04:50:33;12.20;;;6.85;;
40116;SDS011;25829;50.228;18.936;2023-06-22T04:53:40;10.38;;;7.13;;
40116;SDS011;25829;50.228;18.936;2023-06-22T04:56:41;13.05;;;7.07;;
40116;SDS011;25829;50.228;18.936;2023-06-22T05:04:19;8.68;;;6.95;;
40116;SDS011;25829;50.228;18.936;2023-06-22T05:07:33;10.77;;;7.38;;
40116;SDS011;25829;50.228;18.936;2023-06-22T05:26:24;12.98;;;10.13;;
40116;SDS011;25829;50.228;18.936;2023-06-22T05:36:52;20.02;;;17.13;;
40116;SDS011;25829;50.228;18.936;2023-06-22T05:40:03;23.45;;;19.65;;
40116;SDS011;25829;50.228;18.936;2023-06-22T05:43:04;22.63;;;19.23;;
40116;SDS011;25829;50.228;18.936;2023-06-22T05:46:05;23.08;;;17.70;;
40116;SDS011;25829;50.228;18.936;2023-06-22T05:49:12;22.58;;;18.05;;
40116;SDS011;25829;50.228;18.936;2023-06-22T05:55:44;19.17;;;16.80;;
40116;SDS011;25829;50.228;18.936;2023-06-22T05:59:18;26.95;;;19.00;;
40116;SDS011;25829;50.228;18.936;2023-06-22T06:06:08;17.52;;;15.65;;
40116;SDS011;25829;50.228;18.936;2023-06-22T06:09:14;18.40;;;15.35;;
40116;SDS011;25829;50.228;18.936;2023-06-22T06:15:33;17.58;;;14.90;;
40116;SDS011;25829;50.228;18.936;2023-06-22T06:18:35;16.95;;;14.32;;
40116;SDS011;25829;50.228;18.936;2023-06-22T06:21:37;16.90;;;15.15;;
40116;SDS011;25829;50.228;18.936;2023-06-22T06:24:41;17.15;;;15.05;;
40116;SDS011;25829;50.228;18.936;2023-06-22T06:28:07;15.57;;;13.98;;
40116;SDS011;25829;50.228;18.936;2023-06-22T06:31:08;17.13;;;14.77;;
40116;SDS011;25829;50.228;18.936;2023-06-22T06:34:09;16.88;;;15.05;;
40116;SDS011;25829;50.228;18.936;2023-06-22T06:41:03;17.35;;;15.57;;
40116;SDS011;25829;50.228;18.936;2023-06-22T06:52:31;15.43;;;13.82;;
40116;SDS011;25829;50.228;18.936;2023-06-22T06:55:40;15.18;;;13.68;;
40116;SDS011;25829;50.228;18.936;2023-06-22T06:58:41;15.50;;;14.05;;
40116;SDS011;25829;50.228;18.936;2023-06-22T07:01:42;16.58;;;14.23;;
40116;SDS011;25829;50.228;18.936;2023-06-22T07:04:44;15.82;;;14.32;;
40116;SDS011;25829;50.228;18.936;2023-06-22T07:07:45;14.88;;;13.38;;
40116;SDS011;25829;50.228;18.936;2023-06-22T07:10:46;14.70;;;13.20;;
40116;SDS011;25829;50.228;18.936;2023-06-22T07:13:50;16.30;;;12.13;;
40116;SDS011;25829;50.228;18.936;2023-06-22T07:16:53;15.60;;;13.93;;
40116;SDS011;25829;50.228;18.936;2023-06-22T07:19:54;16.05;;;13.68;;
40116;SDS011;25829;50.228;18.936;2023-06-22T07:22:54;14.52;;;13.02;;
40116;SDS011;25829;50.228;18.936;2023-06-22T07:25:55;13.70;;;12.30;;
40116;SDS011;25829;50.228;18.936;2023-06-22T07:28:56;12.63;;;11.23;;
40116;SDS011;25829;50.228;18.936;2023-06-22T07:31:57;10.43;;;9.40;;
40116;SDS011;25829;50.228;18.936;2023-06-22T07:35:01;10.88;;;9.80;;
40116;SDS011;25829;50.228;18.936;2023-06-22T07:38:04;9.60;;;8.60;;
40116;SDS011;25829;50.228;18.936;2023-06-22T07:41:05;10.82;;;9.18;;
40116;SDS011;25829;50.228;18.936;2023-06-22T07:44:06;10.63;;;9.63;;
40116;SDS011;25829;50.228;18.936;2023-06-22T07:47:07;10.55;;;9.55;;
40116;SDS011;25829;50.228;18.936;2023-06-22T07:50:08;10.30;;;9.18;;
40116;SDS011;25829;50.228;18.936;2023-06-22T07:53:09;10.50;;;9.40;;
40116;SDS011;25829;50.228;18.936;2023-06-22T07:56:10;10.77;;;9.32;;
40116;SDS011;25829;50.228;18.936;2023-06-22T07:59:11;11.38;;;8.88;;
40116;SDS011;25829;50.228;18.936;2023-06-22T08:02:12;9.45;;;8.45;;
40116;SDS011;25829;50.228;18.936;2023-06-22T08:05:18;9.35;;;8.45;;
40116;SDS011;25829;50.228;18.936;2023-06-22T08:08:28;10.75;;;8.82;;
40116;SDS011;25829;50.228;18.936;2023-06-22T08:11:28;12.13;;;9.75;;
40116;SDS011;25829;50.228;18.936;2023-06-22T08:14:29;9.40;;;8.50;;
40116;SDS011;25829;50.228;18.936;2023-06-22T08:17:30;9.55;;;8.52;;
40116;SDS011;25829;50.228;18.936;2023-06-22T08:20:31;9.65;;;8.73;;
40116;SDS011;25829;50.228;18.936;2023-06-22T08:23:36;9.55;;;8.52;;
40116;SDS011;25829;50.228;18.936;2023-06-22T08:26:36;12.05;;;9.63;;
40116;SDS011;25829;50.228;18.936;2023-06-22T08:29:37;10.20;;;9.18;;
40116;SDS011;25829;50.228;18.936;2023-06-22T09:03:01;10.80;;;7.75;;
40116;SDS011;25829;50.228;18.936;2023-06-22T09:06:03;8.30;;;7.47;;
40116;SDS011;25829;50.228;18.936;2023-06-22T09:09:07;7.97;;;7.18;;
40116;SDS011;25829;50.228;18.936;2023-06-22T09:12:08;13.07;;;7.50;;
40116;SDS011;25829;50.228;18.936;2023-06-22T09:15:12;7.78;;;7.07;;
40116;SDS011;25829;50.228;18.936;2023-06-22T09:18:13;9.02;;;8.13;;
40116;SDS011;25829;50.228;18.936;2023-06-22T09:21:20;9.15;;;7.22;;
40116;SDS011;25829;50.228;18.936;2023-06-22T09:28:09;8.65;;;7.55;;
40116;SDS011;25829;50.228;18.936;2023-06-22T09:31:10;7.90;;;7.20;;
40116;SDS011;25829;50.228;18.936;2023-06-22T09:34:11;8.88;;;7.47;;
40116;SDS011;25829;50.228;18.936;2023-06-22T09:37:12;8.30;;;7.43;;
40116;SDS011;25829;50.228;18.936;2023-06-22T09:40:19;9.80;;;7.32;;
40116;SDS011;25829;50.228;18.936;2023-06-22T09:43:21;9.20;;;7.35;;
40116;SDS011;25829;50.228;18.936;2023-06-22T09:46:25;9.07;;;7.53;;
40116;SDS011;25829;50.228;18.936;2023-06-22T10:16:51;7.47;;;6.78;;
40116;SDS011;25829;50.228;18.936;2023-06-22T10:19:58;8.50;;;7.05;;
40116;SDS011;25829;50.228;18.936;2023-06-22T10:22:59;11.88;;;7.10;;
40116;SDS011;25829;50.228;18.936;2023-06-22T10:26:00;8.90;;;7.50;;
40116;SDS011;25829;50.228;18.936;2023-06-22T10:29:01;9.95;;;7.88;;
40116;SDS011;25829;50.228;18.936;2023-06-22T10:37:05;9.23;;;7.40;;
40116;SDS011;25829;50.228;18.936;2023-06-22T10:48:55;7.82;;;7.07;;
40116;SDS011;25829;50.228;18.936;2023-06-22T11:17:06;8.10;;;7.38;;
40116;SDS011;25829;50.228;18.936;2023-06-22T11:20:07;10.80;;;7.10;;
40116;SDS011;25829;50.228;18.936;2023-06-22T11:23:17;9.88;;;7.45;;
40116;SDS011;25829;50.228;18.936;2023-06-22T11:26:18;9.75;;;6.63;;
40116;SDS011;25829;50.228;18.936;2023-06-22T11:29:18;10.35;;;7.82;;
40116;SDS011;25829;50.228;18.936;2023-06-22T11:32:19;9.25;;;7.93;;
40116;SDS011;25829;50.228;18.936;2023-06-22T11:35:20;8.77;;;7.88;;
40116;SDS011;25829;50.228;18.936;2023-06-22T11:38:21;12.93;;;7.70;;
40116;SDS011;25829;50.228;18.936;2023-06-22T11:41:21;9.77;;;7.75;;
40116;SDS011;25829;50.228;18.936;2023-06-22T11:44:23;8.30;;;7.50;;
40116;SDS011;25829;50.228;18.936;2023-06-22T11:47:23;11.45;;;7.35;;
40116;SDS011;25829;50.228;18.936;2023-06-22T11:50:24;8.73;;;7.22;;
40116;SDS011;25829;50.228;18.936;2023-06-22T11:53:25;9.98;;;8.05;;
40116;SDS011;25829;50.228;18.936;2023-06-22T11:56:48;8.23;;;7.40;;
40116;SDS011;25829;50.228;18.936;2023-06-22T12:00:18;9.35;;;7.35;;
40116;SDS011;25829;50.228;18.936;2023-06-22T12:03:34;8.88;;;7.47;;
40116;SDS011;25829;50.228;18.936;2023-06-22T12:06:37;9.48;;;7.07;;
40116;SDS011;25829;50.228;18.936;2023-06-22T12:09:41;8.48;;;7.57;;
40116;SDS011;25829;50.228;18.936;2023-06-22T12:12:42;8.57;;;7.78;;
40116;SDS011;25829;50.228;18.936;2023-06-22T12:15:46;7.32;;;6.63;;
40116;SDS011;25829;50.228;18.936;2023-06-22T12:18:54;8.65;;;7.85;;
40116;SDS011;25829;50.228;18.936;2023-06-22T12:21:55;9.30;;;7.65;;
40116;SDS011;25829;50.228;18.936;2023-06-22T12:24:56;8.63;;;7.82;;
40116;SDS011;25829;50.228;18.936;2023-06-22T12:27:56;13.07;;;8.10;;
40116;SDS011;25829;50.228;18.936;2023-06-22T12:30:57;9.40;;;7.75;;
40116;SDS011;25829;50.228;18.936;2023-06-22T12:33:58;9.45;;;7.75;;
40116;SDS011;25829;50.228;18.936;2023-06-22T12:36:59;8.38;;;7.28;;
40116;SDS011;25829;50.228;18.936;2023-06-22T12:40:00;8.32;;;7.53;;
40116;SDS011;25829;50.228;18.936;2023-06-22T12:43:03;11.35;;;8.00;;
40116;SDS011;25829;50.228;18.936;2023-06-22T12:46:04;9.45;;;6.88;;
40116;SDS011;25829;50.228;18.936;2023-06-22T12:49:05;9.70;;;7.53;;
40116;SDS011;25829;50.228;18.936;2023-06-22T13:05:13;9.73;;;8.13;;
40116;SDS011;25829;50.228;18.936;2023-06-22T13:08:13;7.80;;;7.18;;
40116;SDS011;25829;50.228;18.936;2023-06-22T13:11:20;8.07;;;7.28;;
40116;SDS011;25829;50.228;18.936;2023-06-22T13:14:24;8.15;;;7.07;;
40116;SDS011;25829;50.228;18.936;2023-06-22T13:17:40;8.10;;;7.30;;
40116;SDS011;25829;50.228;18.936;2023-06-22T13:20:56;9.02;;;7.53;;
40116;SDS011;25829;50.228;18.936;2023-06-22T13:23:58;8.73;;;7.30;;
40116;SDS011;25829;50.228;18.936;2023-06-22T13:26:59;8.45;;;7.65;;
40116;SDS011;25829;50.228;18.936;2023-06-22T13:30:00;8.73;;;7.82;;
40116;SDS011;25829;50.228;18.936;2023-06-22T13:33:00;10.45;;;7.65;;
40116;SDS011;25829;50.228;18.936;2023-06-22T13:36:02;11.52;;;7.32;;
40116;SDS011;25829;50.228;18.936;2023-06-22T13:39:03;10.68;;;7.63;;
40116;SDS011;25829;50.228;18.936;2023-06-22T13:42:05;10.27;;;8.13;;
40116;SDS011;25829;50.228;18.936;2023-06-22T13:45:07;8.75;;;7.95;;
40116;SDS011;25829;50.228;18.936;2023-06-22T13:48:08;8.52;;;7.18;;
40116;SDS011;25829;50.228;18.936;2023-06-22T13:51:12;8.73;;;7.43;;
40116;SDS011;25829;50.228;18.936;2023-06-22T13:54:14;9.15;;;7.55;;
40116;SDS011;25829;50.228;18.936;2023-06-22T14:00:44;8.38;;;7.57;;
40116;SDS011;25829;50.228;18.936;2023-06-22T14:03:46;8.13;;;7.32;;
40116;SDS011;25829;50.228;18.936;2023-06-22T14:06:51;8.45;;;7.30;;
40116;SDS011;25829;50.228;18.936;2023-06-22T14:09:52;8.88;;;7.75;;
40116;SDS011;25829;50.228;18.936;2023-06-22T14:12:53;8.23;;;7.43;;
40116;SDS011;25829;50.228;18.936;2023-06-22T14:15:53;10.25;;;8.50;;
40116;SDS011;25829;50.228;18.936;2023-06-22T14:18:54;8.18;;;7.30;;
40116;SDS011;25829;50.228;18.936;2023-06-22T14:21:55;8.73;;;7.85;;
40116;SDS011;25829;50.228;18.936;2023-06-22T14:24:57;7.82;;;7.03;;
40116;SDS011;25829;50.228;18.936;2023-06-22T14:27:58;10.85;;;7.68;;
40116;SDS011;25829;50.228;18.936;2023-06-22T14:31:02;9.35;;;7.57;;
40116;SDS011;25829;50.228;18.936;2023-06-22T14:34:03;8.48;;;7.60;;
40116;SDS011;25829;50.228;18.936;2023-06-22T14:37:08;10.32;;;7.68;;
40116;SDS011;25829;50.228;18.936;2023-06-22T14:40:59;13.57;;;7.78;;
40116;SDS011;25829;50.228;18.936;2023-06-22T14:44:00;8.07;;;7.28;;
40116;SDS011;25829;50.228;18.936;2023-06-22T14:47:01;7.72;;;6.93;;
40116;SDS011;25829;50.228;18.936;2023-06-22T14:50:02;10.38;;;7.38;;
40116;SDS011;25829;50.228;18.936;2023-06-22T14:53:03;8.38;;;7.57;;
40116;SDS011;25829;50.228;18.936;2023-06-22T14:56:04;8.82;;;7.75;;
40116;SDS011;25829;50.228;18.936;2023-06-22T14:59:05;12.32;;;7.57;;
40116;SDS011;25829;50.228;18.936;2023-06-22T15:02:06;7.80;;;7.00;;
40116;SDS011;25829;50.228;18.936;2023-06-22T15:05:07;8.82;;;7.57;;
40116;SDS011;25829;50.228;18.936;2023-06-22T15:16:43;8.35;;;7.35;;
40116;SDS011;25829;50.228;18.936;2023-06-22T15:19:46;10.23;;;6.63;;
40116;SDS011;25829;50.228;18.936;2023-06-22T15:22:47;9.13;;;7.68;;
40116;SDS011;25829;50.228;18.936;2023-06-22T15:25:48;8.45;;;7.30;;
40116;SDS011;25829;50.228;18.936;2023-06-22T15:28:49;7.05;;;6.35;;
40116;SDS011;25829;50.228;18.936;2023-06-22T15:31:50;8.73;;;6.90;;
40116;SDS011;25829;50.228;18.936;2023-06-22T15:34:51;10.27;;;7.07;;
40116;SDS011;25829;50.228;18.936;2023-06-22T15:37:54;10.43;;;7.32;;
40116;SDS011;25829;50.228;18.936;2023-06-22T15:40:54;9.13;;;7.03;;
40116;SDS011;25829;50.228;18.936;2023-06-22T15:43:55;7.20;;;6.43;;
40116;SDS011;25829;50.228;18.936;2023-06-22T15:46:56;9.07;;;7.45;;
40116;SDS011;25829;50.228;18.936;2023-06-22T15:49:57;7.30;;;6.57;;
40116;SDS011;25829;50.228;18.936;2023-06-22T15:52:57;8.38;;;6.82;;
40116;SDS011;25829;50.228;18.936;2023-06-22T15:55:58;7.35;;;6.65;;
40116;SDS011;25829;50.228;18.936;2023-06-22T15:58:59;7.90;;;7.18;;
40116;SDS011;25829;50.228;18.936;2023-06-22T16:02:00;7.10;;;6.43;;
40116;SDS011;25829;50.228;18.936;2023-06-22T16:05:01;9.02;;;6.75;;
40116;SDS011;25829;50.228;18.936;2023-06-22T16:08:03;7.80;;;6.78;;
40116;SDS011;25829;50.228;18.936;2023-06-22T16:11:11;8.13;;;6.60;;
40116;SDS011;25829;50.228;18.936;2023-06-22T16:14:12;8.88;;;6.38;;
40116;SDS011;25829;50.228;18.936;2023-06-22T16:20:50;8.38;;;7.22;;
40116;SDS011;25829;50.228;18.936;2023-06-22T16:23:51;8.00;;;7.20;;
40116;SDS011;25829;50.228;18.936;2023-06-22T16:26:52;9.32;;;7.30;;
40116;SDS011;25829;50.228;18.936;2023-06-22T16:29:56;7.88;;;6.82;;
40116;SDS011;25829;50.228;18.936;2023-06-22T16:33:00;7.57;;;6.47;;
40116;SDS011;25829;50.228;18.936;2023-06-22T16:36:07;6.78;;;6.18;;
40116;SDS011;25829;50.228;18.936;2023-06-22T16:39:07;7.80;;;7.00;;
40116;SDS011;25829;50.228;18.936;2023-06-22T16:42:09;6.65;;;6.00;;
40116;SDS011;25829;50.228;18.936;2023-06-22T16:45:09;8.65;;;6.45;;
40116;SDS011;25829;50.228;18.936;2023-06-22T16:48:15;8.57;;;6.85;;
40116;SDS011;25829;50.228;18.936;2023-06-22T16:51:19;8.60;;;7.40;;
40116;SDS011;25829;50.228;18.936;2023-06-22T16:54:28;7.00;;;6.20;;
40116;SDS011;25829;50.228;18.936;2023-06-22T16:57:34;8.93;;;6.70;;
40116;SDS011;25829;50.228;18.936;2023-06-22T17:00:35;7.57;;;6.45;;
40116;SDS011;25829;50.228;18.936;2023-06-22T17:03:39;9.82;;;6.85;;
40116;SDS011;25829;50.228;18.936;2023-06-22T17:06:46;7.03;;;6.32;;
40116;SDS011;25829;50.228;18.936;2023-06-22T17:09:54;7.53;;;6.70;;
40116;SDS011;25829;50.228;18.936;2023-06-22T17:12:57;7.78;;;6.97;;
40116;SDS011;25829;50.228;18.936;2023-06-22T17:15:58;7.28;;;6.57;;
40116;SDS011;25829;50.228;18.936;2023-06-22T17:19:00;7.53;;;6.80;;
40116;SDS011;25829;50.228;18.936;2023-06-22T17:22:05;7.32;;;6.45;;
40116;SDS011;25829;50.228;18.936;2023-06-22T17:25:09;9.27;;;7.10;;
40116;SDS011;25829;50.228;18.936;2023-06-22T17:28:10;9.10;;;7.30;;
40116;SDS011;25829;50.228;18.936;2023-06-22T17:31:11;8.35;;;7.55;;
40116;SDS011;25829;50.228;18.936;2023-06-22T17:34:13;10.05;;;7.07;;
40116;SDS011;25829;50.228;18.936;2023-06-22T17:37:18;9.25;;;6.88;;
40116;SDS011;25829;50.228;18.936;2023-06-22T17:43:45;8.10;;;7.28;;
40116;SDS011;25829;50.228;18.936;2023-06-22T17:46:47;9.00;;;7.13;;
40116;SDS011;25829;50.228;18.936;2023-06-22T17:50:04;7.70;;;6.97;;
40116;SDS011;25829;50.228;18.936;2023-06-22T17:53:09;7.82;;;7.03;;
40116;SDS011;25829;50.228;18.936;2023-06-22T18:00:09;7.68;;;6.88;;
40116;SDS011;25829;50.228;18.936;2023-06-22T18:03:13;7.80;;;7.10;;
40116;SDS011;25829;50.228;18.936;2023-06-22T18:06:14;8.15;;;7.45;;
40116;SDS011;25829;50.228;18.936;2023-06-22T18:09:17;7.65;;;6.57;;
40116;SDS011;25829;50.228;18.936;2023-06-22T18:12:18;8.10;;;7.28;;
40116;SDS011;25829;50.228;18.936;2023-06-22T18:15:22;8.60;;;7.13;;
40116;SDS011;25829;50.228;18.936;2023-06-22T18:18:24;8.73;;;6.65;;
40116;SDS011;25829;50.228;18.936;2023-06-22T18:21:26;8.27;;;6.97;;
40116;SDS011;25829;50.228;18.936;2023-06-22T18:24:31;8.00;;;6.72;;
40116;SDS011;25829;50.228;18.936;2023-06-22T18:27:35;7.82;;;7.05;;
40116;SDS011;25829;50.228;18.936;2023-06-22T18:30:41;9.73;;;7.22;;
40116;SDS011;25829;50.228;18.936;2023-06-22T18:33:42;8.20;;;7.03;;
40116;SDS011;25829;50.228;18.936;2023-06-22T18:36:45;8.05;;;7.15;;
40116;SDS011;25829;50.228;18.936;2023-06-22T18:39:50;8.93;;;7.57;;
40116;SDS011;25829;50.228;18.936;2023-06-22T18:42:58;9.35;;;7.63;;
40116;SDS011;25829;50.228;18.936;2023-06-22T18:49:30;8.27;;;7.25;;
40116;SDS011;25829;50.228;18.936;2023-06-22T19:13:45;9.68;;;7.90;;
40116;SDS011;25829;50.228;18.936;2023-06-22T19:16:58;8.93;;;7.95;;
40116;SDS011;25829;50.228;18.936;2023-06-22T19:20:03;11.68;;;7.53;;
40116;SDS011;25829;50.228;18.936;2023-06-22T19:23:06;11.88;;;7.38;;
40116;SDS011;25829;50.228;18.936;2023-06-22T19:26:24;8.80;;;7.60;;
40116;SDS011;25829;50.228;18.936;2023-06-22T19:29:25;8.63;;;7.78;;
40116;SDS011;25829;50.228;18.936;2023-06-22T19:32:27;9.95;;;7.97;;
40116;SDS011;25829;50.228;18.936;2023-06-22T19:35:29;8.60;;;7.70;;
40116;SDS011;25829;50.228;18.936;2023-06-22T19:38:40;12.88;;;7.82;;
40116;SDS011;25829;50.228;18.936;2023-06-22T19:41:41;8.95;;;7.60;;
40116;SDS011;25829;50.228;18.936;2023-06-22T19:44:42;9.05;;;8.15;;
40116;SDS011;25829;50.228;18.936;2023-06-22T19:47:44;9.68;;;7.65;;
40116;SDS011;25829;50.228;18.936;2023-06-22T19:50:45;8.93;;;7.82;;
40116;SDS011;25829;50.228;18.936;2023-06-22T19:53:46;14.45;;;7.97;;
40116;SDS011;25829;50.228;18.936;2023-06-22T19:56:49;9.38;;;8.10;;
40116;SDS011;25829;50.228;18.936;2023-06-22T19:59:52;9.45;;;8.45;;
40116;SDS011;25829;50.228;18.936;2023-06-22T20:02:53;9.45;;;7.82;;
40116;SDS011;25829;50.228;18.936;2023-06-22T20:05:54;8.70;;;7.85;;
40116;SDS011;25829;50.228;18.936;2023-06-22T20:08:55;8.40;;;7.50;;
40116;SDS011;25829;50.228;18.936;2023-06-22T20:12:04;9.88;;;8.00;;
40116;SDS011;25829;50.228;18.936;2023-06-22T20:15:17;9.77;;;7.80;;
40116;SDS011;25829;50.228;18.936;2023-06-22T20:18:21;9.10;;;8.20;;
40116;SDS011;25829;50.228;18.936;2023-06-22T20:21:22;8.60;;;7.70;;
40116;SDS011;25829;50.228;18.936;2023-06-22T20:24:27;9.15;;;7.97;;
40116;SDS011;25829;50.228;18.936;2023-06-22T20:27:28;8.98;;;7.90;;
40116;SDS011;25829;50.228;18.936;2023-06-22T20:30:29;9.73;;;8.23;;
40116;SDS011;25829;50.228;18.936;2023-06-22T20:33:30;9.45;;;7.53;;
40116;SDS011;25829;50.228;18.936;2023-06-22T20:36:34;10.15;;;7.72;;
40116;SDS011;25829;50.228;18.936;2023-06-22T20:56:01;10.82;;;7.30;;
40116;SDS011;25829;50.228;18.936;2023-06-22T20:59:02;10.02;;;7.60;;
40116;SDS011;25829;50.228;18.936;2023-06-22T21:02:11;9.65;;;6.97;;
40116;SDS011;25829;50.228;18.936;2023-06-22T21:05:15;8.00;;;7.25;;
40116;SDS011;25829;50.228;18.936;2023-06-22T21:08:16;10.18;;;7.50;;
40116;SDS011;25829;50.228;18.936;2023-06-22T21:11:26;9.60;;;7.93;;
40116;SDS011;25829;50.228;18.936;2023-06-22T21:14:27;8.05;;;7.25;;
40116;SDS011;25829;50.228;18.936;2023-06-22T21:17:28;8.02;;;7.22;;
40116;SDS011;25829;50.228;18.936;2023-06-22T21:20:28;7.88;;;6.80;;
40116;SDS011;25829;50.228;18.936;2023-06-22T21:23:32;8.10;;;7.05;;
40116;SDS011;25829;50.228;18.936;2023-06-22T21:26:32;8.00;;;7.30;;
40116;SDS011;25829;50.228;18.936;2023-06-22T21:29:33;8.10;;;7.35;;
40116;SDS011;25829;50.228;18.936;2023-06-22T21:32:34;8.13;;;7.15;;
40116;SDS011;25829;50.228;18.936;2023-06-22T21:35:35;8.20;;;7.43;;
40116;SDS011;25829;50.228;18.936;2023-06-22T21:56:00;8.40;;;6.65;;
40116;SDS011;25829;50.228;18.936;2023-06-22T21:59:01;8.00;;;7.25;;
40116;SDS011;25829;50.228;18.936;2023-06-22T22:02:02;8.98;;;6.82;;
40116;SDS011;25829;50.228;18.936;2023-06-22T22:05:03;8.73;;;7.82;;
40116;SDS011;25829;50.228;18.936;2023-06-22T22:08:04;7.93;;;7.00;;
40116;SDS011;25829;50.228;18.936;2023-06-22T22:11:05;8.27;;;7.43;;
40116;SDS011;25829;50.228;18.936;2023-06-22T22:14:06;9.13;;;7.43;;
40116;SDS011;25829;50.228;18.936;2023-06-22T22:17:08;8.30;;;7.10;;
40116;SDS011;25829;50.228;18.936;2023-06-22T22:20:09;7.60;;;6.85;;
40116;SDS011;25829;50.228;18.936;2023-06-22T22:23:11;10.27;;;6.80;;
40116;SDS011;25829;50.228;18.936;2023-06-22T22:26:11;8.23;;;6.95;;
40116;SDS011;25829;50.228;18.936;2023-06-22T22:29:12;10.82;;;6.88;;
40116;SDS011;25829;50.228;18.936;2023-06-22T22:32:13;9.68;;;7.25;;
40116;SDS011;25829;50.228;18.936;2023-06-22T22:35:14;8.63;;;6.45;;
40116;SDS011;25829;50.228;18.936;2023-06-22T22:38:15;8.65;;;6.60;;
40116;SDS011;25829;50.228;18.936;2023-06-22T22:41:17;7.53;;;6.80;;
40116;SDS011;25829;50.228;18.936;2023-06-22T22:44:18;9.73;;;6.93;;
40116;SDS011;25829;50.228;18.936;2023-06-22T22:47:18;7.32;;;6.63;;
40116;SDS011;25829;50.228;18.936;2023-06-22T22:50:19;9.23;;;6.45;;